KTCL/TCL METAR and TAF weather

Enter ICAO airport designator
Station Type Date Time Source
KTCL METAR 2022/01/29 08:53 UTC NOAA

KTCL 290853Z AUTO 34007G16KT 10SM CLR M02/M13 A3034 RMK AO2 SLP272 T10221128 53012


Station Type Date Time Source
KTCL Decoded METAR 2022/01/29 08:53 UTC NOAA

TUSCALOOSA REGIONAL AIRPORT, AL, United States (KTCL) 33-13N 087-37W
Jan 29, 2022 - 03:53 AM EST / 2022.01.29 0853 UTC
Wind: from the NNW (340 degrees) at 8 MPH (7 KT) gusting to 18 MPH (16 KT):0
Visibility: 10 mile(s):0
Sky conditions: clear
Temperature: 28.0 F (-2.2 C)
Windchill: 19 F (-7 C):1
Dew Point: 9.0 F (-12.8 C)
Relative Humidity: 44%
Pressure (altimeter): 30.34 in. Hg (1027 hPa)
Pressure tendency: 0.04 inches (1.2 hPa) higher than three hours ago
ob: KTCL 290853Z AUTO 34007G16KT 10SM CLR M02/M13 A3034 RMK AO2 SLP272 T10221128 53012
cycle: 9

Station Type Date Time Source
KTCL TAF 2022/01/29 06:22 UTC NOAA

TAF KTCL 290520Z 2906/3006 34011G25KT P6SM SKC
FM290900 34009G18KT P6SM SKC
FM291900 31006KT P6SM SKC
FM292200 28006KT P6SM SKC

Example: see airport list